createdAt,value
2023-03-29T00:00:12.938Z,99046.78
2023-03-29T00:03:02.496Z,99051.44
2023-03-29T00:05:33.877Z,99046.13
2023-03-29T00:08:04.002Z,99052.28
2023-03-29T00:10:33.542Z,99046.97
2023-03-29T00:13:02.233Z,99047.78
2023-03-29T00:15:29.838Z,99039.81
2023-03-29T00:17:57.488Z,99046.13
2023-03-29T00:20:25.505Z,99043.47
2023-03-29T00:22:53.046Z,99043.66
2023-03-29T00:25:21.348Z,99046.13
2023-03-29T00:27:48.577Z,99045.31
2023-03-29T00:30:16.498Z,99050.78
2023-03-29T00:32:43.810Z,99056.94
2023-03-29T00:35:11.396Z,99052.47
2023-03-29T00:37:38.730Z,99049.81
2023-03-29T00:40:11.013Z,99048.13
2023-03-29T00:42:38.442Z,99051.81
2023-03-29T00:45:12.091Z,99049.97
2023-03-29T00:47:39.386Z,99047.31
2023-03-29T00:50:33.083Z,99046.47
2023-03-29T00:53:06.415Z,99044.00
2023-03-29T00:56:10.026Z,99044.00
2023-03-29T00:58:55.194Z,99047.47
2023-03-29T01:01:28.295Z,99042.34
2023-03-29T01:04:04.537Z,99034.53
2023-03-29T01:06:35.741Z,99040.69
2023-03-29T01:09:08.744Z,99033.72
2023-03-29T01:11:55.737Z,99031.88
2023-03-29T01:14:34.441Z,99032.06
2023-03-29T01:17:02.181Z,99028.41
2023-03-29T01:19:35.056Z,99026.75
2023-03-29T01:22:19.822Z,99028.41
2023-03-29T01:24:59.857Z,99032.91
2023-03-29T01:28:06.326Z,99021.44
2023-03-29T01:30:40.528Z,99019.78
2023-03-29T01:33:21.271Z,99027.59
2023-03-29T01:35:57.589Z,99018.09
2023-03-29T01:38:36.363Z,99012.78
2023-03-29T01:41:04.584Z,99012.63
2023-03-29T01:43:44.761Z,99002.16
2023-03-29T01:46:20.718Z,98998.84
2023-03-29T01:48:53.492Z,99005.84
2023-03-29T01:51:36.116Z,99011.16
2023-03-29T01:54:15.298Z,99008.66
2023-03-29T01:56:45.649Z,99009.47
2023-03-29T01:59:18.385Z,99009.47
2023-03-29T02:01:51.693Z,99013.16
2023-03-29T02:04:26.494Z,99016.63
2023-03-29T02:06:55.898Z,99016.84
2023-03-29T02:09:23.887Z,99009.69
2023-03-29T02:11:53.139Z,99004.53
2023-03-29T02:14:21.974Z,99008.22
2023-03-29T02:16:49.957Z,98997.56
2023-03-29T02:19:19.139Z,99002.91
2023-03-29T02:22:03.916Z,99002.91
2023-03-29T02:24:33.688Z,98999.38
2023-03-29T02:27:01.413Z,98999.59
2023-03-29T02:29:29.489Z,99005.56
2023-03-29T02:32:05.089Z,99007.56
2023-03-29T02:34:38.874Z,99006.53
2023-03-29T02:37:11.693Z,99015.53
2023-03-29T02:39:41.121Z,99010.38
2023-03-29T02:42:10.066Z,99011.38
2023-03-29T02:44:40.780Z,99011.38
2023-03-29T02:47:19.508Z,99006.91
2023-03-29T02:49:47.129Z,99009.56
2023-03-29T02:52:19.337Z,99016.69
2023-03-29T02:54:51.226Z,99017.53
2023-03-29T02:57:22.025Z,99014.22
2023-03-29T02:59:50.405Z,99021.16
2023-03-29T03:02:17.974Z,99021.16
2023-03-29T03:04:45.777Z,99015.19
2023-03-29T03:07:13.684Z,99010.09
2023-03-29T03:09:41.803Z,99017.03
2023-03-29T03:12:09.304Z,99012.09
2023-03-29T03:14:36.866Z,99019.88
2023-03-29T03:17:04.830Z,99014.53
2023-03-29T03:19:32.651Z,99026.19
2023-03-29T03:21:59.940Z,99012.09
2023-03-29T03:24:28.140Z,99012.91
2023-03-29T03:26:55.428Z,99012.09
2023-03-29T03:29:24.928Z,99016.56
2023-03-29T03:31:53.927Z,99021.88
2023-03-29T03:34:22.740Z,99016.56
2023-03-29T03:36:50.553Z,99023.88
2023-03-29T03:39:18.168Z,99020.22
2023-03-29T03:41:45.450Z,99025.53
2023-03-29T03:44:13.244Z,99020.38
2023-03-29T03:46:41.520Z,99011.59
2023-03-29T03:49:09.052Z,99010.78
2023-03-29T03:51:36.820Z,99017.72
2023-03-29T03:54:04.504Z,99014.41
2023-03-29T03:56:31.800Z,99016.91
2023-03-29T03:58:59.405Z,99015.28
2023-03-29T04:01:27.380Z,99012.78
2023-03-29T04:03:55.220Z,99017.28
2023-03-29T04:06:22.621Z,99010.28
2023-03-29T04:08:50.263Z,99007.63
2023-03-29T04:11:17.539Z,99019.06
2023-03-29T04:13:46.562Z,99013.97
2023-03-29T04:16:13.876Z,99022.59
2023-03-29T04:18:41.729Z,99020.91
2023-03-29T04:21:09.134Z,99016.63
2023-03-29T04:23:36.699Z,99015.59
2023-03-29T04:26:04.266Z,99019.28
2023-03-29T04:28:32.160Z,99009.63
2023-03-29T04:31:00.196Z,99003.66
2023-03-29T04:33:29.345Z,99014.28
2023-03-29T04:35:57.026Z,99011.63
2023-03-29T04:38:26.629Z,99016.28
2023-03-29T04:40:54.886Z,99015.47
2023-03-29T04:43:23.605Z,99009.34
2023-03-29T04:45:51.003Z,99012.97
2023-03-29T04:48:18.638Z,99012.97
2023-03-29T04:50:46.737Z,99013.19
2023-03-29T04:53:14.271Z,99008.03
2023-03-29T04:55:41.605Z,99008.03
2023-03-29T04:58:10.012Z,99009.00
2023-03-29T05:00:37.939Z,99011.66
2023-03-29T05:03:06.888Z,99007.38
2023-03-29T05:05:35.483Z,99016.97
2023-03-29T05:08:03.391Z,99008.38
2023-03-29T05:10:30.928Z,99010.03
2023-03-29T05:12:58.645Z,99008.38
2023-03-29T05:15:26.138Z,99009.22
2023-03-29T05:17:54.369Z,99004.72
2023-03-29T05:20:22.141Z,99004.34
2023-03-29T05:22:50.734Z,99004.34
2023-03-29T05:25:18.766Z,99008.84
2023-03-29T05:27:46.554Z,99012.16
2023-03-29T05:30:15.262Z,99006.84
2023-03-29T05:32:42.861Z,99010.53
2023-03-29T05:35:11.680Z,99002.34
2023-03-29T05:37:40.945Z,99012.97
2023-03-29T05:40:10.052Z,99011.16
2023-03-29T05:42:38.563Z,99010.16
2023-03-29T05:45:06.540Z,99013.47
2023-03-29T05:47:34.098Z,99013.47
2023-03-29T05:50:02.562Z,99011.63
2023-03-29T05:52:30.223Z,99012.28
2023-03-29T05:54:58.666Z,99012.28
2023-03-29T05:57:27.904Z,99016.41
2023-03-29T05:59:56.155Z,99016.41
2023-03-29T06:02:25.679Z,99013.59
2023-03-29T06:04:53.999Z,99013.59
2023-03-29T06:07:23.341Z,99007.31
2023-03-29T06:09:50.773Z,99006.28
2023-03-29T06:12:20.144Z,99023.03
2023-03-29T06:14:48.205Z,99021.22
2023-03-29T06:17:15.814Z,99025.53
2023-03-29T06:19:44.362Z,99021.03
2023-03-29T06:22:14.706Z,99025.53
2023-03-29T06:24:42.263Z,99016.56
2023-03-29T06:27:09.766Z,99023.53
2023-03-29T06:29:37.040Z,99024.34
2023-03-29T06:32:05.361Z,99025.19
2023-03-29T06:34:36.064Z,99029.66
2023-03-29T06:37:05.892Z,99031.34
2023-03-29T06:39:33.175Z,99037.47
2023-03-29T06:42:05.205Z,99033.81
2023-03-29T06:44:37.623Z,99037.47
2023-03-29T06:47:06.226Z,99029.34
2023-03-29T06:49:34.412Z,99030.16
2023-03-29T06:52:01.919Z,99036.13
2023-03-29T06:54:29.214Z,99033.47
2023-03-29T06:56:57.822Z,99025.31
2023-03-29T06:59:25.822Z,99027.78
2023-03-29T07:01:55.128Z,99027.78
2023-03-29T07:04:24.574Z,99027.78
2023-03-29T07:07:01.431Z,99017.16
2023-03-29T07:09:30.478Z,99027.47
2023-03-29T07:11:59.056Z,99022.97
2023-03-29T07:14:28.869Z,99018.47
2023-03-29T07:16:58.439Z,99030.59
2023-03-29T07:19:27.342Z,99023.44
2023-03-29T07:21:55.121Z,99028.41
2023-03-29T07:24:22.663Z,99024.72
2023-03-29T07:27:03.291Z,99024.72
2023-03-29T07:29:32.052Z,99021.91
2023-03-29T07:32:00.187Z,99018.22
2023-03-29T07:34:29.967Z,99017.91
2023-03-29T07:36:57.753Z,99011.56
2023-03-29T07:39:26.187Z,99013.06
2023-03-29T07:41:57.527Z,99015.72
2023-03-29T07:44:24.841Z,99013.88
2023-03-29T07:46:52.433Z,99009.41
2023-03-29T07:49:22.024Z,99012.69
2023-03-29T07:51:49.688Z,99013.53
2023-03-29T07:54:18.891Z,99015.19
2023-03-29T07:56:47.626Z,99012.34
2023-03-29T07:59:15.372Z,99019.31
2023-03-29T08:01:42.967Z,99022.81
2023-03-29T08:04:11.060Z,99014.66
2023-03-29T08:06:39.364Z,99018.97
2023-03-29T08:09:06.834Z,99015.47
2023-03-29T08:11:34.478Z,99020.63
2023-03-29T08:14:01.791Z,99013.47
2023-03-29T08:16:29.393Z,99016.63
2023-03-29T08:18:56.725Z,99013.31
2023-03-29T08:21:24.241Z,99006.97
2023-03-29T08:23:51.971Z,98999.00
2023-03-29T08:26:19.551Z,99005.97
2023-03-29T08:28:46.810Z,99006.44
2023-03-29T08:31:15.342Z,99005.25
2023-03-29T08:33:44.195Z,98999.94
2023-03-29T08:36:13.050Z,99000.94
2023-03-29T08:38:40.702Z,98996.28
2023-03-29T08:41:25.988Z,98994.59
2023-03-29T08:44:03.252Z,98986.47
2023-03-29T08:46:49.918Z,98991.59
2023-03-29T08:49:19.904Z,98988.31
2023-03-29T08:51:56.796Z,98996.28
2023-03-29T08:54:27.360Z,98988.13
2023-03-29T08:57:04.405Z,98996.75
2023-03-29T08:59:33.173Z,98983.25
2023-03-29T09:02:04.249Z,98981.63
2023-03-29T09:04:35.727Z,98973.66
2023-03-29T09:07:08.331Z,98974.28
2023-03-29T09:09:35.992Z,98968.97
2023-03-29T09:12:13.676Z,98973.91
2023-03-29T09:15:04.577Z,98965.94
2023-03-29T09:17:42.591Z,98968.25
2023-03-29T09:20:41.178Z,98960.47
2023-03-29T09:23:11.933Z,98968.25
2023-03-29T09:25:56.641Z,98956.59
2023-03-29T09:28:38.162Z,98957.25
2023-03-29T09:31:26.059Z,98954.59
2023-03-29T09:33:58.931Z,98949.91
2023-03-29T09:36:52.565Z,98947.09
2023-03-29T09:39:22.201Z,98949.09
2023-03-29T09:41:52.189Z,98941.94
2023-03-29T09:44:31.193Z,98936.25
2023-03-29T09:47:11.589Z,98944.91
2023-03-29T09:49:44.150Z,98943.91
2023-03-29T09:52:14.986Z,98939.25
2023-03-29T09:54:43.552Z,98941.91
2023-03-29T09:57:13.787Z,98938.22
2023-03-29T09:59:41.573Z,98936.19
2023-03-29T10:02:12.782Z,98938.03
2023-03-29T10:04:42.536Z,98934.38
2023-03-29T10:07:20.744Z,98927.22
2023-03-29T10:09:51.025Z,98939.50
2023-03-29T10:12:19.934Z,98929.88
2023-03-29T10:14:54.185Z,98932.34
2023-03-29T10:17:24.568Z,98934.84
2023-03-29T10:20:04.157Z,98925.66
2023-03-29T10:22:36.349Z,98915.84
2023-03-29T10:25:04.994Z,98920.00
2023-03-29T10:27:35.713Z,98912.81
2023-03-29T10:30:12.901Z,98910.16
2023-03-29T10:32:41.167Z,98908.31
2023-03-29T10:35:12.955Z,98916.78
2023-03-29T10:37:44.854Z,98915.09
2023-03-29T10:40:24.373Z,98902.91
2023-03-29T10:42:54.813Z,98902.09
2023-03-29T10:45:28.978Z,98911.06
2023-03-29T10:47:57.918Z,98909.06
2023-03-29T10:50:34.255Z,98906.22
2023-03-29T10:53:03.160Z,98900.69
2023-03-29T10:55:48.496Z,98893.72
2023-03-29T10:58:15.709Z,98893.56
2023-03-29T11:00:54.553Z,98883.72
2023-03-29T11:03:49.751Z,98901.00
2023-03-29T11:06:27.671Z,98887.03
2023-03-29T11:08:54.981Z,98881.34
2023-03-29T11:11:44.406Z,98876.81
2023-03-29T11:14:41.170Z,98876.81
2023-03-29T11:17:18.093Z,98873.16
2023-03-29T11:20:05.754Z,98862.34
2023-03-29T11:23:17.127Z,98861.31
2023-03-29T11:26:11.816Z,98852.34
2023-03-29T11:28:56.592Z,98853.97
2023-03-29T11:31:28.672Z,98843.34
2023-03-29T11:34:22.364Z,98845.00
2023-03-29T11:37:19.269Z,98848.66
2023-03-29T11:40:11.269Z,98845.00
2023-03-29T11:42:43.844Z,98836.00
2023-03-29T11:45:32.431Z,98825.34
2023-03-29T11:48:02.532Z,98827.81
2023-03-29T11:50:43.746Z,98823.31
2023-03-29T11:53:25.459Z,98819.63
2023-03-29T11:55:55.367Z,98800.19
2023-03-29T11:58:39.077Z,98802.84
2023-03-29T12:01:28.137Z,98804.28
2023-03-29T12:04:22.412Z,98804.94
2023-03-29T12:07:01.741Z,98796.94
2023-03-29T12:09:39.517Z,98795.13
2023-03-29T12:12:23.335Z,98790.63
2023-03-29T12:15:15.431Z,98786.94
2023-03-29T12:17:51.975Z,98788.59
2023-03-29T12:20:31.305Z,98786.94
2023-03-29T12:22:59.266Z,98785.94
2023-03-29T12:26:03.908Z,98788.59
2023-03-29T12:28:53.120Z,98782.44
2023-03-29T12:31:32.622Z,98777.97
2023-03-29T12:34:57.537Z,98775.94
2023-03-29T12:37:35.949Z,98772.41
2023-03-29T12:40:10.032Z,98780.41
2023-03-29T12:42:54.314Z,98768.94
2023-03-29T12:45:32.096Z,98759.97
2023-03-29T12:48:00.232Z,98769.56
2023-03-29T12:50:37.340Z,98768.59
2023-03-29T12:53:18.137Z,98764.88
2023-03-29T12:55:54.667Z,98770.22
2023-03-29T12:58:36.583Z,98764.88
2023-03-29T13:01:24.394Z,98768.59
2023-03-29T13:04:21.620Z,98760.59
2023-03-29T13:06:50.092Z,98750.94
2023-03-29T13:09:35.256Z,98750.94
2023-03-29T13:12:19.285Z,98756.25
2023-03-29T13:14:52.552Z,98738.66
2023-03-29T13:18:05.218Z,98742.94
2023-03-29T13:20:56.012Z,98741.97
2023-03-29T13:23:56.926Z,98740.28
2023-03-29T13:26:51.342Z,98738.25
2023-03-29T13:29:38.064Z,98732.94
2023-03-29T13:32:27.161Z,98719.63
2023-03-29T13:35:11.853Z,98725.78
2023-03-29T13:37:41.840Z,98728.44
2023-03-29T13:40:32.914Z,98716.97
2023-03-29T13:43:19.704Z,98716.78
2023-03-29T13:45:59.266Z,98710.44
2023-03-29T13:48:29.646Z,98708.81
2023-03-29T13:51:08.019Z,98700.00
2023-03-29T13:53:40.994Z,98707.97
2023-03-29T13:56:15.533Z,98706.31
2023-03-29T13:58:51.267Z,98708.59
2023-03-29T14:01:43.460Z,98707.97
2023-03-29T14:04:20.877Z,98701.00
2023-03-29T14:06:53.102Z,98696.31
2023-03-29T14:09:26.001Z,98701.00
2023-03-29T14:11:54.059Z,98695.66
2023-03-29T14:14:24.632Z,98697.34
2023-03-29T14:16:55.598Z,98699.16
2023-03-29T14:19:36.863Z,98694.47
2023-03-29T14:22:13.114Z,98691.63
2023-03-29T14:24:48.034Z,98700.06
2023-03-29T14:27:16.630Z,98688.56
2023-03-29T14:29:49.462Z,98681.59
2023-03-29T14:32:27.418Z,98691.22
2023-03-29T14:34:54.807Z,98691.22
2023-03-29T14:37:26.162Z,98685.88
2023-03-29T14:39:54.604Z,98676.09
2023-03-29T14:42:27.164Z,98682.22
2023-03-29T14:45:15.072Z,98675.88
2023-03-29T14:47:44.541Z,98669.91
2023-03-29T14:50:22.765Z,98675.25
2023-03-29T14:52:52.737Z,98680.56
2023-03-29T14:55:23.791Z,98668.28
2023-03-29T14:57:54.795Z,98674.25
2023-03-29T15:00:42.489Z,98661.75
2023-03-29T15:03:15.184Z,98665.22
2023-03-29T15:05:49.938Z,98662.56
2023-03-29T15:08:29.709Z,98657.22
2023-03-29T15:10:57.500Z,98658.91
2023-03-29T15:13:26.049Z,98649.06
2023-03-29T15:16:00.345Z,98654.22
2023-03-29T15:18:39.928Z,98645.19
2023-03-29T15:21:08.689Z,98642.53
2023-03-29T15:23:39.084Z,98651.16
2023-03-29T15:26:13.416Z,98647.84
2023-03-29T15:28:55.424Z,98651.16
2023-03-29T15:31:33.091Z,98636.19
2023-03-29T15:34:29.275Z,98635.56
2023-03-29T15:36:59.730Z,98637.19
2023-03-29T15:39:29.241Z,98635.75
2023-03-29T15:41:58.118Z,98639.22
2023-03-29T15:44:32.642Z,98635.94
2023-03-29T15:47:00.355Z,98633.09
2023-03-29T15:49:27.978Z,98632.28
2023-03-29T15:51:56.646Z,98628.16
2023-03-29T15:54:24.786Z,98628.16
2023-03-29T15:56:56.523Z,98620.34
2023-03-29T15:59:24.265Z,98626.50
2023-03-29T16:01:51.705Z,98615.03
2023-03-29T16:04:21.659Z,98620.53
2023-03-29T16:06:52.786Z,98624.03
2023-03-29T16:09:21.808Z,98618.69
2023-03-29T16:11:50.064Z,98622.38
2023-03-29T16:14:27.026Z,98620.34
2023-03-29T16:16:55.625Z,98617.47
2023-03-29T16:19:24.359Z,98615.78
2023-03-29T16:21:54.019Z,98613.13
2023-03-29T16:24:24.786Z,98609.84
2023-03-29T16:26:56.502Z,98616.19
2023-03-29T16:29:25.354Z,98613.72
2023-03-29T16:31:53.435Z,98611.25
2023-03-29T16:34:22.697Z,98608.56
2023-03-29T16:36:50.628Z,98605.91
2023-03-29T16:39:18.657Z,98608.56
2023-03-29T16:41:49.060Z,98610.59
2023-03-29T16:44:20.743Z,98606.31
2023-03-29T16:46:50.443Z,98602.19
2023-03-29T16:49:18.181Z,98606.69
2023-03-29T16:51:47.135Z,98605.88
2023-03-29T16:54:15.612Z,98611.38
2023-03-29T16:56:43.102Z,98603.38
2023-03-29T16:59:11.993Z,98607.06
2023-03-29T17:01:40.666Z,98602.97
2023-03-29T17:04:09.005Z,98615.47
2023-03-29T17:06:36.525Z,98621.78
2023-03-29T17:09:05.184Z,98616.84
2023-03-29T17:11:32.814Z,98613.34
2023-03-29T17:14:00.467Z,98610.69
2023-03-29T17:16:29.133Z,98614.38
2023-03-29T17:19:00.413Z,98609.22
2023-03-29T17:21:29.249Z,98617.22
2023-03-29T17:23:57.003Z,98620.91
2023-03-29T17:26:24.394Z,98619.25
2023-03-29T17:28:52.011Z,98616.59
2023-03-29T17:31:19.807Z,98617.59
2023-03-29T17:33:50.467Z,98621.47
2023-03-29T17:36:19.169Z,98632.94
2023-03-29T17:38:48.910Z,98629.66
2023-03-29T17:41:17.188Z,98634.16
2023-03-29T17:43:45.237Z,98634.34
2023-03-29T17:46:12.735Z,98636.00
2023-03-29T17:48:40.915Z,98644.97
2023-03-29T17:51:08.485Z,98638.03
2023-03-29T17:53:37.647Z,98638.03
2023-03-29T17:56:07.256Z,98641.69
2023-03-29T17:58:35.345Z,98640.03
2023-03-29T18:01:11.505Z,98640.03
2023-03-29T18:03:40.658Z,98633.88
2023-03-29T18:06:09.355Z,98637.56
2023-03-29T18:08:41.256Z,98637.56
2023-03-29T18:11:16.211Z,98635.91
2023-03-29T18:13:45.110Z,98637.75
2023-03-29T18:16:14.667Z,98642.06
2023-03-29T18:18:43.910Z,98652.72
2023-03-29T18:21:11.962Z,98651.06
2023-03-29T18:23:45.542Z,98656.38
2023-03-29T18:26:14.946Z,98659.03
2023-03-29T18:28:47.016Z,98657.41
2023-03-29T18:31:15.608Z,98661.06
2023-03-29T18:33:45.391Z,98654.91
2023-03-29T18:36:13.818Z,98655.09
2023-03-29T18:38:42.984Z,98651.44
2023-03-29T18:41:12.460Z,98642.81
2023-03-29T18:43:41.092Z,98646.47
2023-03-29T18:46:08.741Z,98644.47
2023-03-29T18:48:38.964Z,98642.81
2023-03-29T18:51:08.744Z,98638.13
2023-03-29T18:53:38.683Z,98633.81
2023-03-29T18:56:06.658Z,98640.81
2023-03-29T18:58:34.945Z,98642.81
2023-03-29T19:01:04.220Z,98644.47
2023-03-29T19:03:34.315Z,98639.97
2023-03-29T19:06:03.851Z,98633.81
2023-03-29T19:08:32.879Z,98635.84
2023-03-29T19:11:01.822Z,98631.38
2023-03-29T19:13:29.415Z,98633.81
2023-03-29T19:15:57.199Z,98628.50
2023-03-29T19:18:26.014Z,98632.19
2023-03-29T19:20:56.316Z,98629.69
2023-03-29T19:23:27.070Z,98635.84
2023-03-29T19:25:59.961Z,98643.81
2023-03-29T19:28:27.978Z,98642.81
2023-03-29T19:30:58.098Z,98651.63
2023-03-29T19:33:25.681Z,98645.47
2023-03-29T19:35:53.034Z,98648.16
2023-03-29T19:38:21.085Z,98647.50
2023-03-29T19:40:50.345Z,98645.66
2023-03-29T19:43:18.294Z,98637.88
2023-03-29T19:45:47.545Z,98644.03
2023-03-29T19:48:22.556Z,98634.22
2023-03-29T19:50:51.444Z,98639.53
2023-03-29T19:53:19.583Z,98654.66
2023-03-29T19:55:46.830Z,98644.84
2023-03-29T19:58:14.412Z,98640.53
2023-03-29T20:00:42.365Z,98643.19
2023-03-29T20:03:10.457Z,98637.88
2023-03-29T20:05:38.879Z,98631.94
2023-03-29T20:08:08.216Z,98630.91
2023-03-29T20:10:36.345Z,98633.56
2023-03-29T20:13:06.488Z,98637.88
2023-03-29T20:15:34.730Z,98635.41
2023-03-29T20:18:02.325Z,98629.28
2023-03-29T20:20:30.006Z,98625.97
2023-03-29T20:22:58.307Z,98633.56
2023-03-29T20:25:25.937Z,98627.63
2023-03-29T20:27:53.968Z,98626.78
2023-03-29T20:30:21.265Z,98624.94
2023-03-29T20:32:48.860Z,98616.16
2023-03-29T20:35:16.470Z,98623.31
2023-03-29T20:37:44.369Z,98626.78
2023-03-29T20:40:12.910Z,98623.50
2023-03-29T20:42:40.524Z,98619.00
2023-03-29T20:45:18.248Z,98611.84
2023-03-29T20:47:55.953Z,98613.69
2023-03-29T20:50:30.147Z,98621.66
2023-03-29T20:53:02.083Z,98606.72
2023-03-29T20:55:30.410Z,98607.53
2023-03-29T20:57:58.268Z,98617.38
2023-03-29T21:00:28.801Z,98599.75
2023-03-29T21:03:00.212Z,98597.25
2023-03-29T21:05:28.930Z,98596.44
2023-03-29T21:07:56.909Z,98602.41
2023-03-29T21:10:26.659Z,98599.75
2023-03-29T21:12:54.402Z,98598.09
2023-03-29T21:15:21.919Z,98601.75
2023-03-29T21:17:49.458Z,98597.25
2023-03-29T21:20:16.873Z,98590.31
2023-03-29T21:22:44.542Z,98591.13
2023-03-29T21:25:15.493Z,98584.13
2023-03-29T21:27:43.381Z,98582.47
2023-03-29T21:30:11.224Z,98584.13
2023-03-29T21:32:38.791Z,98589.47
2023-03-29T21:35:06.897Z,98583.31
2023-03-29T21:37:34.684Z,98588.81
2023-03-29T21:40:05.651Z,98588.81
2023-03-29T21:42:34.102Z,98586.97
2023-03-29T21:45:01.560Z,98584.31
2023-03-29T21:47:29.168Z,98591.50
2023-03-29T21:49:56.560Z,98581.03
2023-03-29T21:52:24.076Z,98588.19
2023-03-29T21:54:51.532Z,98582.88
2023-03-29T21:57:19.199Z,98573.03
2023-03-29T21:59:46.505Z,98575.88
2023-03-29T22:02:14.277Z,98574.91
2023-03-29T22:04:41.819Z,98573.88
2023-03-29T22:07:10.620Z,98565.25
2023-03-29T22:09:41.218Z,98568.53
2023-03-29T22:12:10.035Z,98559.94
2023-03-29T22:14:37.433Z,98568.94
2023-03-29T22:17:06.167Z,98561.59
2023-03-29T22:19:38.832Z,98559.13
2023-03-29T22:22:13.584Z,98552.97
2023-03-29T22:24:42.061Z,98557.47
2023-03-29T22:27:11.636Z,98557.47
2023-03-29T22:29:39.046Z,98549.69
2023-03-29T22:32:07.399Z,98552.97
2023-03-29T22:34:34.936Z,98551.31
2023-03-29T22:37:02.490Z,98546.00
2023-03-29T22:39:30.864Z,98549.50
2023-03-29T22:41:58.348Z,98543.34
2023-03-29T22:44:26.988Z,98549.50
2023-03-29T22:46:55.894Z,98546.00
2023-03-29T22:49:23.193Z,98549.69
2023-03-29T22:51:51.483Z,98546.00
2023-03-29T22:54:18.734Z,98548.06
2023-03-29T22:56:46.713Z,98535.34
2023-03-29T22:59:14.203Z,98539.06
2023-03-29T23:01:41.822Z,98532.09
2023-03-29T23:04:09.294Z,98531.06
2023-03-29T23:06:36.989Z,98532.09
2023-03-29T23:09:05.445Z,98532.91
2023-03-29T23:11:33.383Z,98527.78
2023-03-29T23:14:03.941Z,98533.72
2023-03-29T23:16:32.002Z,98525.13
2023-03-29T23:18:59.435Z,98521.47
2023-03-29T23:21:27.917Z,98525.13
2023-03-29T23:23:55.281Z,98526.78
2023-03-29T23:26:23.381Z,98525.13
2023-03-29T23:28:51.517Z,98530.44
2023-03-29T23:31:19.650Z,98525.13
2023-03-29T23:33:46.924Z,98514.47
2023-03-29T23:36:17.074Z,98518.16
2023-03-29T23:38:46.315Z,98512.84
2023-03-29T23:41:16.686Z,98514.66
2023-03-29T23:43:46.950Z,98516.50
2023-03-29T23:46:16.814Z,98512.84
2023-03-29T23:48:46.150Z,98508.53
2023-03-29T23:51:13.871Z,98503.03
2023-03-29T23:53:41.495Z,98502.22
2023-03-29T23:56:10.233Z,98499.34
2023-03-29T23:58:37.940Z,98500.38
